TimeMST,TemperatureF,Dew PointF,Humidity,Sea Level PressureIn,VisibilityMPH,Wind Direction,Wind SpeedMPH,Gust SpeedMPH,PrecipitationIn,Events,Conditions,WindDirDegrees,DateUTC
12:21 AM,30.2,21.2,69,30.25,10.0,SSW,18.4,-,N/A,,Scattered Clouds,200,2013-02-13 07:21:00
12:53 AM,30.0,21.0,69,30.34,10.0,SSW,10.4,-,N/A,,Partly Cloudy,200,2013-02-13 07:53:00
1:09 AM,30.2,21.2,69,30.28,10.0,SSW,10.4,-,N/A,,Mostly Cloudy,210,2013-02-13 08:09:00
1:53 AM,30.9,21.9,69,30.34,10.0,SSW,9.2,-,N/A,,Overcast,200,2013-02-13 08:53:00
2:53 AM,30.0,21.0,69,30.34,10.0,SSW,10.4,-,N/A,,Overcast,210,2013-02-13 09:53:00
3:53 AM,32.0,21.0,64,30.33,10.0,SSW,11.5,-,N/A,,Overcast,200,2013-02-13 10:53:00
4:53 AM,32.0,21.0,64,30.30,10.0,SSW,16.1,-,N/A,,Overcast,200,2013-02-13 11:53:00
5:13 AM,30.2,21.2,69,30.23,10.0,SSW,16.1,-,N/A,,Mostly Cloudy,200,2013-02-13 12:13:00
5:34 AM,30.2,21.2,69,30.25,10.0,SSW,9.2,-,N/A,,Mostly Cloudy,210,2013-02-13 12:34:00
5:53 AM,30.0,19.9,66,30.34,10.0,SSW,11.5,-,N/A,,Overcast,200,2013-02-13 12:53:00
6:53 AM,30.9,21.9,69,30.31,10.0,SSW,15.0,-,N/A,,Mostly Cloudy,200,2013-02-13 13:53:00
7:53 AM,32.0,23.0,69,30.30,10.0,SSW,12.7,-,N/A,,Overcast,200,2013-02-13 14:53:00
8:53 AM,32.0,21.9,66,30.31,10.0,SSW,15.0,-,N/A,,Mostly Cloudy,200,2013-02-13 15:53:00
9:53 AM,34.0,23.0,64,30.31,10.0,SSW,16.1,-,N/A,,Overcast,200,2013-02-13 16:53:00
10:53 AM,34.0,23.0,64,30.30,10.0,SSW,18.4,24.2,N/A,,Overcast,200,2013-02-13 17:53:00
11:53 AM,35.1,24.1,64,30.29,10.0,SSW,19.6,-,N/A,,Overcast,200,2013-02-13 18:53:00
12:53 PM,35.1,24.1,64,30.27,10.0,South,19.6,25.3,N/A,,Overcast,190,2013-02-13 19:53:00
1:53 PM,35.1,24.1,64,30.25,10.0,South,19.6,27.6,N/A,,Overcast,190,2013-02-13 20:53:00
2:53 PM,36.0,25.0,64,30.24,10.0,South,18.4,26.5,N/A,,Overcast,180,2013-02-13 21:53:00
3:53 PM,37.9,26.1,62,30.22,10.0,SSW,19.6,-,N/A,,Overcast,200,2013-02-13 22:53:00
4:53 PM,37.0,25.0,62,30.21,10.0,South,16.1,24.2,N/A,,Mostly Cloudy,190,2013-02-13 23:53:00
5:53 PM,36.0,26.1,67,30.22,10.0,South,12.7,-,N/A,,Mostly Cloudy,180,2013-02-14 00:53:00
6:53 PM,36.0,26.1,67,30.22,10.0,South,15.0,-,N/A,,Mostly Cloudy,180,2013-02-14 01:53:00
7:53 PM,36.0,26.1,67,30.22,10.0,SSW,15.0,20.7,N/A,,Clear,200,2013-02-14 02:53:00
8:53 PM,37.0,26.1,65,30.18,10.0,SSW,19.6,35.7,N/A,,Partly Cloudy,210,2013-02-14 03:53:00
9:53 PM,36.0,26.1,67,30.20,10.0,SSW,19.6,26.5,N/A,,Overcast,210,2013-02-14 04:53:00
10:53 PM,35.1,25.0,67,30.21,10.0,SSW,12.7,21.9,N/A,,Overcast,210,2013-02-14 05:53:00
11:53 PM,35.1,27.0,72,30.23,10.0,SW,16.1,-,N/A,,Overcast,220,2013-02-14 06:53:00